sensor_id;sensor_type;location;lat;lon;timestamp;P1;durP1;ratioP1;P2;durP2;ratioP2
35442;SDS011;21561;55.654;37.592;2022-12-18T00:01:24;18.15;;;7.30;;
35442;SDS011;21561;55.654;37.592;2022-12-18T00:03:53;20.98;;;8.18;;
35442;SDS011;21561;55.654;37.592;2022-12-18T00:06:21;20.65;;;7.32;;
35442;SDS011;21561;55.654;37.592;2022-12-18T00:08:49;21.27;;;8.25;;
35442;SDS011;21561;55.654;37.592;2022-12-18T00:11:18;20.95;;;7.60;;
35442;SDS011;21561;55.654;37.592;2022-12-18T00:13:47;19.63;;;7.65;;
35442;SDS011;21561;55.654;37.592;2022-12-18T00:16:16;19.33;;;6.72;;
35442;SDS011;21561;55.654;37.592;2022-12-18T00:18:48;18.98;;;7.70;;
35442;SDS011;21561;55.654;37.592;2022-12-18T00:21:16;18.90;;;7.35;;
35442;SDS011;21561;55.654;37.592;2022-12-18T00:23:45;20.00;;;7.55;;
35442;SDS011;21561;55.654;37.592;2022-12-18T00:26:17;19.48;;;7.72;;
35442;SDS011;21561;55.654;37.592;2022-12-18T00:28:49;19.98;;;7.43;;
35442;SDS011;21561;55.654;37.592;2022-12-18T00:31:17;18.60;;;7.10;;
35442;SDS011;21561;55.654;37.592;2022-12-18T00:33:46;20.17;;;7.95;;
35442;SDS011;21561;55.654;37.592;2022-12-18T00:36:20;17.17;;;7.00;;
35442;SDS011;21561;55.654;37.592;2022-12-18T00:38:52;21.33;;;8.00;;
35442;SDS011;21561;55.654;37.592;2022-12-18T00:41:20;20.77;;;7.72;;
35442;SDS011;21561;55.654;37.592;2022-12-18T00:44:05;20.05;;;7.93;;
35442;SDS011;21561;55.654;37.592;2022-12-18T00:46:33;18.50;;;7.22;;
35442;SDS011;21561;55.654;37.592;2022-12-18T00:49:00;19.00;;;7.00;;
35442;SDS011;21561;55.654;37.592;2022-12-18T00:51:28;21.48;;;7.35;;
35442;SDS011;21561;55.654;37.592;2022-12-18T00:53:54;19.98;;;6.88;;
35442;SDS011;21561;55.654;37.592;2022-12-18T00:56:22;22.52;;;7.60;;
35442;SDS011;21561;55.654;37.592;2022-12-18T00:58:49;18.63;;;7.18;;
35442;SDS011;21561;55.654;37.592;2022-12-18T01:01:16;19.25;;;6.45;;
35442;SDS011;21561;55.654;37.592;2022-12-18T01:03:43;19.95;;;6.88;;
35442;SDS011;21561;55.654;37.592;2022-12-18T01:06:12;18.00;;;6.60;;
35442;SDS011;21561;55.654;37.592;2022-12-18T01:08:40;18.08;;;7.32;;
35442;SDS011;21561;55.654;37.592;2022-12-18T01:11:12;19.20;;;6.72;;
35442;SDS011;21561;55.654;37.592;2022-12-18T01:13:42;18.13;;;6.93;;
35442;SDS011;21561;55.654;37.592;2022-12-18T01:16:13;18.05;;;6.80;;
35442;SDS011;21561;55.654;37.592;2022-12-18T01:18:42;18.85;;;6.85;;
35442;SDS011;21561;55.654;37.592;2022-12-18T01:21:10;19.75;;;7.07;;
35442;SDS011;21561;55.654;37.592;2022-12-18T01:23:38;18.83;;;6.72;;
35442;SDS011;21561;55.654;37.592;2022-12-18T01:26:09;19.23;;;6.78;;
35442;SDS011;21561;55.654;37.592;2022-12-18T01:28:38;18.20;;;6.25;;
35442;SDS011;21561;55.654;37.592;2022-12-18T01:31:39;15.07;;;5.22;;
35442;SDS011;21561;55.654;37.592;2022-12-18T01:34:00;20.48;;;7.30;;
35442;SDS011;21561;55.654;37.592;2022-12-18T01:36:28;19.02;;;6.80;;
35442;SDS011;21561;55.654;37.592;2022-12-18T01:38:58;19.77;;;6.93;;
35442;SDS011;21561;55.654;37.592;2022-12-18T01:41:28;18.27;;;6.38;;
35442;SDS011;21561;55.654;37.592;2022-12-18T01:47:24;18.15;;;6.45;;
35442;SDS011;21561;55.654;37.592;2022-12-18T01:49:55;20.30;;;7.32;;
35442;SDS011;21561;55.654;37.592;2022-12-18T01:52:23;19.67;;;6.53;;
35442;SDS011;21561;55.654;37.592;2022-12-18T01:54:52;18.00;;;6.32;;
35442;SDS011;21561;55.654;37.592;2022-12-18T01:57:20;17.92;;;6.28;;
35442;SDS011;21561;55.654;37.592;2022-12-18T01:59:52;19.02;;;6.63;;
35442;SDS011;21561;55.654;37.592;2022-12-18T02:02:20;22.08;;;6.32;;
35442;SDS011;21561;55.654;37.592;2022-12-18T02:04:48;17.50;;;5.82;;
35442;SDS011;21561;55.654;37.592;2022-12-18T02:09:48;18.63;;;6.88;;
35442;SDS011;21561;55.654;37.592;2022-12-18T02:12:33;15.70;;;5.85;;
35442;SDS011;21561;55.654;37.592;2022-12-18T02:17:39;17.73;;;6.45;;
35442;SDS011;21561;55.654;37.592;2022-12-18T02:28:47;18.25;;;6.63;;
35442;SDS011;21561;55.654;37.592;2022-12-18T02:31:21;16.40;;;5.47;;
35442;SDS011;21561;55.654;37.592;2022-12-18T02:33:55;16.95;;;5.80;;
35442;SDS011;21561;55.654;37.592;2022-12-18T02:36:25;17.17;;;5.93;;
35442;SDS011;21561;55.654;37.592;2022-12-18T02:38:54;16.58;;;6.28;;
35442;SDS011;21561;55.654;37.592;2022-12-18T02:41:22;17.05;;;6.10;;
35442;SDS011;21561;55.654;37.592;2022-12-18T02:43:53;16.83;;;5.78;;
35442;SDS011;21561;55.654;37.592;2022-12-18T02:46:37;18.20;;;6.03;;
35442;SDS011;21561;55.654;37.592;2022-12-18T03:00:25;18.23;;;6.93;;
35442;SDS011;21561;55.654;37.592;2022-12-18T03:02:59;16.15;;;4.75;;
35442;SDS011;21561;55.654;37.592;2022-12-18T03:05:45;17.23;;;4.70;;
35442;SDS011;21561;55.654;37.592;2022-12-18T03:08:20;17.13;;;5.20;;
35442;SDS011;21561;55.654;37.592;2022-12-18T03:14:09;14.70;;;4.85;;
35442;SDS011;21561;55.654;37.592;2022-12-18T03:16:38;18.55;;;5.93;;
35442;SDS011;21561;55.654;37.592;2022-12-18T03:19:08;18.30;;;6.63;;
35442;SDS011;21561;55.654;37.592;2022-12-18T03:21:48;18.95;;;6.30;;
35442;SDS011;21561;55.654;37.592;2022-12-18T03:24:18;18.48;;;5.18;;
35442;SDS011;21561;55.654;37.592;2022-12-18T03:26:49;16.88;;;5.18;;
35442;SDS011;21561;55.654;37.592;2022-12-18T03:29:24;15.52;;;5.28;;
35442;SDS011;21561;55.654;37.592;2022-12-18T03:31:57;17.13;;;5.68;;
35442;SDS011;21561;55.654;37.592;2022-12-18T03:34:37;15.70;;;5.60;;
35442;SDS011;21561;55.654;37.592;2022-12-18T03:37:08;13.63;;;4.50;;
35442;SDS011;21561;55.654;37.592;2022-12-18T03:39:35;17.60;;;5.80;;
35442;SDS011;21561;55.654;37.592;2022-12-18T03:44:31;17.70;;;5.75;;
35442;SDS011;21561;55.654;37.592;2022-12-18T03:52:01;14.98;;;4.18;;
35442;SDS011;21561;55.654;37.592;2022-12-18T03:54:33;20.02;;;6.15;;
35442;SDS011;21561;55.654;37.592;2022-12-18T03:57:05;19.73;;;6.30;;
35442;SDS011;21561;55.654;37.592;2022-12-18T03:59:38;14.93;;;5.15;;
35442;SDS011;21561;55.654;37.592;2022-12-18T04:02:06;15.70;;;5.40;;
35442;SDS011;21561;55.654;37.592;2022-12-18T04:04:35;16.92;;;5.68;;
35442;SDS011;21561;55.654;37.592;2022-12-18T04:07:05;15.65;;;5.63;;
35442;SDS011;21561;55.654;37.592;2022-12-18T04:09:36;15.77;;;5.28;;
35442;SDS011;21561;55.654;37.592;2022-12-18T04:12:05;12.73;;;4.38;;
35442;SDS011;21561;55.654;37.592;2022-12-18T04:14:32;16.30;;;5.53;;
35442;SDS011;21561;55.654;37.592;2022-12-18T04:17:02;16.13;;;5.55;;
35442;SDS011;21561;55.654;37.592;2022-12-18T04:19:29;16.00;;;5.47;;
35442;SDS011;21561;55.654;37.592;2022-12-18T04:21:56;18.58;;;6.10;;
35442;SDS011;21561;55.654;37.592;2022-12-18T04:24:23;13.90;;;4.40;;
35442;SDS011;21561;55.654;37.592;2022-12-18T04:26:50;15.80;;;4.93;;
35442;SDS011;21561;55.654;37.592;2022-12-18T04:29:16;17.40;;;6.05;;
35442;SDS011;21561;55.654;37.592;2022-12-18T04:31:43;15.25;;;4.93;;
35442;SDS011;21561;55.654;37.592;2022-12-18T04:34:10;17.90;;;5.72;;
35442;SDS011;21561;55.654;37.592;2022-12-18T04:36:37;17.98;;;5.53;;
35442;SDS011;21561;55.654;37.592;2022-12-18T04:39:04;14.88;;;4.78;;
35442;SDS011;21561;55.654;37.592;2022-12-18T04:41:31;16.02;;;4.88;;
35442;SDS011;21561;55.654;37.592;2022-12-18T04:43:57;14.05;;;4.93;;
35442;SDS011;21561;55.654;37.592;2022-12-18T04:46:24;13.93;;;4.53;;
35442;SDS011;21561;55.654;37.592;2022-12-18T04:48:51;14.95;;;5.30;;
35442;SDS011;21561;55.654;37.592;2022-12-18T04:51:18;15.25;;;5.35;;
35442;SDS011;21561;55.654;37.592;2022-12-18T04:53:51;13.38;;;4.15;;
35442;SDS011;21561;55.654;37.592;2022-12-18T04:56:19;13.20;;;5.00;;
35442;SDS011;21561;55.654;37.592;2022-12-18T04:58:46;16.85;;;6.03;;
35442;SDS011;21561;55.654;37.592;2022-12-18T05:01:14;14.15;;;4.90;;
35442;SDS011;21561;55.654;37.592;2022-12-18T05:03:42;14.85;;;5.05;;
35442;SDS011;21561;55.654;37.592;2022-12-18T05:06:10;15.65;;;4.22;;
35442;SDS011;21561;55.654;37.592;2022-12-18T05:08:37;13.98;;;4.60;;
35442;SDS011;21561;55.654;37.592;2022-12-18T05:11:05;16.75;;;5.57;;
35442;SDS011;21561;55.654;37.592;2022-12-18T05:13:34;14.55;;;5.00;;
35442;SDS011;21561;55.654;37.592;2022-12-18T05:16:02;14.27;;;4.45;;
35442;SDS011;21561;55.654;37.592;2022-12-18T05:18:29;17.80;;;5.53;;
35442;SDS011;21561;55.654;37.592;2022-12-18T05:20:56;16.80;;;5.97;;
35442;SDS011;21561;55.654;37.592;2022-12-18T05:23:23;18.55;;;5.50;;
35442;SDS011;21561;55.654;37.592;2022-12-18T05:25:54;15.30;;;5.40;;
35442;SDS011;21561;55.654;37.592;2022-12-18T05:28:24;17.90;;;5.18;;
35442;SDS011;21561;55.654;37.592;2022-12-18T05:30:53;16.55;;;5.80;;
35442;SDS011;21561;55.654;37.592;2022-12-18T05:33:22;14.88;;;4.85;;
35442;SDS011;21561;55.654;37.592;2022-12-18T05:35:54;15.50;;;4.68;;
35442;SDS011;21561;55.654;37.592;2022-12-18T05:38:23;16.15;;;5.35;;
35442;SDS011;21561;55.654;37.592;2022-12-18T05:40:51;15.60;;;4.85;;
35442;SDS011;21561;55.654;37.592;2022-12-18T05:43:18;15.13;;;5.13;;
35442;SDS011;21561;55.654;37.592;2022-12-18T05:45:48;17.55;;;5.25;;
35442;SDS011;21561;55.654;37.592;2022-12-18T05:48:16;15.50;;;4.90;;
35442;SDS011;21561;55.654;37.592;2022-12-18T05:50:44;17.75;;;5.53;;
35442;SDS011;21561;55.654;37.592;2022-12-18T05:53:13;16.20;;;5.03;;
35442;SDS011;21561;55.654;37.592;2022-12-18T05:55:41;15.48;;;4.57;;
35442;SDS011;21561;55.654;37.592;2022-12-18T05:58:10;15.25;;;4.50;;
35442;SDS011;21561;55.654;37.592;2022-12-18T06:00:38;16.50;;;5.43;;
35442;SDS011;21561;55.654;37.592;2022-12-18T06:03:07;17.05;;;5.53;;
35442;SDS011;21561;55.654;37.592;2022-12-18T06:05:36;18.02;;;4.80;;
35442;SDS011;21561;55.654;37.592;2022-12-18T06:08:07;19.63;;;6.07;;
35442;SDS011;21561;55.654;37.592;2022-12-18T06:10:34;13.80;;;4.22;;
35442;SDS011;21561;55.654;37.592;2022-12-18T06:13:01;15.88;;;4.82;;
35442;SDS011;21561;55.654;37.592;2022-12-18T06:15:28;12.05;;;4.10;;
35442;SDS011;21561;55.654;37.592;2022-12-18T06:17:54;15.88;;;5.55;;
35442;SDS011;21561;55.654;37.592;2022-12-18T06:20:21;17.15;;;5.50;;
35442;SDS011;21561;55.654;37.592;2022-12-18T06:22:48;16.63;;;4.60;;
35442;SDS011;21561;55.654;37.592;2022-12-18T06:25:15;17.15;;;5.47;;
35442;SDS011;21561;55.654;37.592;2022-12-18T06:27:42;15.43;;;5.40;;
35442;SDS011;21561;55.654;37.592;2022-12-18T06:30:09;15.20;;;5.00;;
35442;SDS011;21561;55.654;37.592;2022-12-18T06:32:37;15.68;;;4.63;;
35442;SDS011;21561;55.654;37.592;2022-12-18T06:35:04;16.67;;;6.28;;
35442;SDS011;21561;55.654;37.592;2022-12-18T06:37:32;11.45;;;4.05;;
35442;SDS011;21561;55.654;37.592;2022-12-18T06:39:58;16.42;;;4.47;;
35442;SDS011;21561;55.654;37.592;2022-12-18T06:42:29;14.00;;;4.53;;
35442;SDS011;21561;55.654;37.592;2022-12-18T06:44:56;12.98;;;4.07;;
35442;SDS011;21561;55.654;37.592;2022-12-18T06:47:22;15.88;;;5.05;;
35442;SDS011;21561;55.654;37.592;2022-12-18T06:49:49;14.13;;;4.75;;
35442;SDS011;21561;55.654;37.592;2022-12-18T06:52:16;16.00;;;5.57;;
35442;SDS011;21561;55.654;37.592;2022-12-18T06:54:43;12.88;;;4.45;;
35442;SDS011;21561;55.654;37.592;2022-12-18T06:57:09;16.35;;;5.65;;
35442;SDS011;21561;55.654;37.592;2022-12-18T06:59:36;14.60;;;4.68;;
35442;SDS011;21561;55.654;37.592;2022-12-18T07:02:03;14.52;;;5.13;;
35442;SDS011;21561;55.654;37.592;2022-12-18T07:04:31;18.05;;;5.28;;
35442;SDS011;21561;55.654;37.592;2022-12-18T07:06:58;13.88;;;4.60;;
35442;SDS011;21561;55.654;37.592;2022-12-18T07:09:25;15.80;;;5.05;;
35442;SDS011;21561;55.654;37.592;2022-12-18T07:11:52;13.75;;;5.10;;
35442;SDS011;21561;55.654;37.592;2022-12-18T07:14:18;18.83;;;5.20;;
35442;SDS011;21561;55.654;37.592;2022-12-18T07:16:45;15.40;;;4.38;;
35442;SDS011;21561;55.654;37.592;2022-12-18T07:19:12;14.82;;;4.38;;
35442;SDS011;21561;55.654;37.592;2022-12-18T07:21:39;11.73;;;3.75;;
35442;SDS011;21561;55.654;37.592;2022-12-18T07:24:06;15.23;;;5.22;;
35442;SDS011;21561;55.654;37.592;2022-12-18T07:26:33;16.52;;;4.95;;
35442;SDS011;21561;55.654;37.592;2022-12-18T07:29:00;15.27;;;4.88;;
35442;SDS011;21561;55.654;37.592;2022-12-18T07:31:27;13.57;;;4.35;;
35442;SDS011;21561;55.654;37.592;2022-12-18T07:33:54;11.98;;;4.22;;
35442;SDS011;21561;55.654;37.592;2022-12-18T07:36:22;13.63;;;4.50;;
35442;SDS011;21561;55.654;37.592;2022-12-18T07:38:49;14.57;;;4.68;;
35442;SDS011;21561;55.654;37.592;2022-12-18T07:41:17;11.77;;;4.20;;
35442;SDS011;21561;55.654;37.592;2022-12-18T07:43:45;15.13;;;4.95;;
35442;SDS011;21561;55.654;37.592;2022-12-18T07:46:12;11.55;;;4.40;;
35442;SDS011;21561;55.654;37.592;2022-12-18T07:48:41;12.88;;;4.40;;
35442;SDS011;21561;55.654;37.592;2022-12-18T07:51:10;14.38;;;4.03;;
35442;SDS011;21561;55.654;37.592;2022-12-18T07:53:39;14.63;;;4.65;;
35442;SDS011;21561;55.654;37.592;2022-12-18T07:56:08;14.50;;;4.57;;
35442;SDS011;21561;55.654;37.592;2022-12-18T07:58:54;13.80;;;4.43;;
35442;SDS011;21561;55.654;37.592;2022-12-18T08:01:21;12.93;;;4.05;;
35442;SDS011;21561;55.654;37.592;2022-12-18T08:03:49;19.58;;;5.32;;
35442;SDS011;21561;55.654;37.592;2022-12-18T08:06:17;14.98;;;4.85;;
35442;SDS011;21561;55.654;37.592;2022-12-18T08:08:53;16.58;;;4.97;;
35442;SDS011;21561;55.654;37.592;2022-12-18T08:11:21;12.32;;;3.65;;
35442;SDS011;21561;55.654;37.592;2022-12-18T08:13:49;14.18;;;4.93;;
35442;SDS011;21561;55.654;37.592;2022-12-18T08:16:16;14.52;;;4.47;;
35442;SDS011;21561;55.654;37.592;2022-12-18T08:18:44;14.10;;;4.55;;
35442;SDS011;21561;55.654;37.592;2022-12-18T08:21:12;12.85;;;3.95;;
35442;SDS011;21561;55.654;37.592;2022-12-18T08:23:49;14.23;;;4.38;;
35442;SDS011;21561;55.654;37.592;2022-12-18T08:26:18;17.20;;;4.47;;
35442;SDS011;21561;55.654;37.592;2022-12-18T08:28:46;15.60;;;5.68;;
35442;SDS011;21561;55.654;37.592;2022-12-18T08:31:13;14.15;;;4.30;;
35442;SDS011;21561;55.654;37.592;2022-12-18T08:33:40;13.23;;;4.05;;
35442;SDS011;21561;55.654;37.592;2022-12-18T08:36:08;14.27;;;4.97;;
35442;SDS011;21561;55.654;37.592;2022-12-18T08:38:36;13.05;;;3.90;;
35442;SDS011;21561;55.654;37.592;2022-12-18T08:41:04;13.90;;;4.38;;
35442;SDS011;21561;55.654;37.592;2022-12-18T08:43:32;12.77;;;4.20;;
35442;SDS011;21561;55.654;37.592;2022-12-18T08:46:18;15.90;;;4.97;;
35442;SDS011;21561;55.654;37.592;2022-12-18T08:48:47;12.55;;;3.97;;
35442;SDS011;21561;55.654;37.592;2022-12-18T08:51:15;16.88;;;5.32;;
35442;SDS011;21561;55.654;37.592;2022-12-18T08:53:43;14.05;;;4.30;;
35442;SDS011;21561;55.654;37.592;2022-12-18T08:56:11;16.45;;;4.20;;
35442;SDS011;21561;55.654;37.592;2022-12-18T08:58:40;10.27;;;3.42;;
35442;SDS011;21561;55.654;37.592;2022-12-18T09:01:08;17.50;;;5.03;;
35442;SDS011;21561;55.654;37.592;2022-12-18T09:03:36;12.98;;;4.10;;
35442;SDS011;21561;55.654;37.592;2022-12-18T09:06:04;13.70;;;3.65;;
35442;SDS011;21561;55.654;37.592;2022-12-18T09:08:34;12.98;;;3.95;;
35442;SDS011;21561;55.654;37.592;2022-12-18T09:13:30;16.00;;;4.78;;
35442;SDS011;21561;55.654;37.592;2022-12-18T09:15:57;12.68;;;3.70;;
35442;SDS011;21561;55.654;37.592;2022-12-18T09:18:24;11.48;;;3.80;;
35442;SDS011;21561;55.654;37.592;2022-12-18T09:20:51;14.65;;;4.25;;
35442;SDS011;21561;55.654;37.592;2022-12-18T09:23:21;11.10;;;3.47;;
35442;SDS011;21561;55.654;37.592;2022-12-18T09:25:48;10.80;;;3.45;;
35442;SDS011;21561;55.654;37.592;2022-12-18T09:28:16;14.75;;;4.13;;
35442;SDS011;21561;55.654;37.592;2022-12-18T09:30:45;13.73;;;4.43;;
35442;SDS011;21561;55.654;37.592;2022-12-18T09:33:14;17.60;;;5.13;;
35442;SDS011;21561;55.654;37.592;2022-12-18T09:35:43;18.38;;;4.65;;
35442;SDS011;21561;55.654;37.592;2022-12-18T09:38:12;15.48;;;4.97;;
35442;SDS011;21561;55.654;37.592;2022-12-18T09:40:44;12.30;;;4.13;;
35442;SDS011;21561;55.654;37.592;2022-12-18T09:43:18;13.32;;;4.18;;
35442;SDS011;21561;55.654;37.592;2022-12-18T09:46:09;12.85;;;4.13;;
35442;SDS011;21561;55.654;37.592;2022-12-18T09:48:44;13.95;;;4.07;;
35442;SDS011;21561;55.654;37.592;2022-12-18T09:51:19;14.88;;;4.90;;
35442;SDS011;21561;55.654;37.592;2022-12-18T09:54:10;14.55;;;4.80;;
35442;SDS011;21561;55.654;37.592;2022-12-18T09:56:40;12.17;;;3.90;;
35442;SDS011;21561;55.654;37.592;2022-12-18T09:59:15;14.30;;;4.07;;
35442;SDS011;21561;55.654;37.592;2022-12-18T10:01:50;14.38;;;3.95;;
35442;SDS011;21561;55.654;37.592;2022-12-18T10:04:17;11.48;;;3.65;;
35442;SDS011;21561;55.654;37.592;2022-12-18T10:07:08;13.32;;;4.00;;
35442;SDS011;21561;55.654;37.592;2022-12-18T10:12:34;15.68;;;4.78;;
35442;SDS011;21561;55.654;37.592;2022-12-18T10:17:51;15.23;;;5.18;;
35442;SDS011;21561;55.654;37.592;2022-12-18T10:20:44;14.95;;;4.40;;
35442;SDS011;21561;55.654;37.592;2022-12-18T10:23:28;13.88;;;4.30;;
35442;SDS011;21561;55.654;37.592;2022-12-18T10:26:01;14.82;;;4.38;;
35442;SDS011;21561;55.654;37.592;2022-12-18T10:28:29;13.77;;;4.20;;
35442;SDS011;21561;55.654;37.592;2022-12-18T10:30:57;14.07;;;3.90;;
35442;SDS011;21561;55.654;37.592;2022-12-18T10:33:28;11.90;;;3.47;;
35442;SDS011;21561;55.654;37.592;2022-12-18T10:35:58;14.85;;;4.53;;
35442;SDS011;21561;55.654;37.592;2022-12-18T10:38:28;11.65;;;3.95;;
35442;SDS011;21561;55.654;37.592;2022-12-18T10:43:40;13.88;;;4.10;;
35442;SDS011;21561;55.654;37.592;2022-12-18T10:46:15;14.73;;;4.55;;
35442;SDS011;21561;55.654;37.592;2022-12-18T10:51:26;13.80;;;4.18;;
35442;SDS011;21561;55.654;37.592;2022-12-18T10:56:43;14.98;;;4.65;;
35442;SDS011;21561;55.654;37.592;2022-12-18T10:59:49;13.70;;;3.75;;
35442;SDS011;21561;55.654;37.592;2022-12-18T11:02:25;13.68;;;4.72;;
35442;SDS011;21561;55.654;37.592;2022-12-18T11:04:55;13.30;;;3.75;;
35442;SDS011;21561;55.654;37.592;2022-12-18T11:07:21;15.68;;;3.72;;
35442;SDS011;21561;55.654;37.592;2022-12-18T11:09:59;12.77;;;3.87;;
35442;SDS011;21561;55.654;37.592;2022-12-18T11:12:29;14.85;;;4.57;;
35442;SDS011;21561;55.654;37.592;2022-12-18T11:14:57;15.30;;;4.60;;
35442;SDS011;21561;55.654;37.592;2022-12-18T11:17:30;15.07;;;3.72;;
35442;SDS011;21561;55.654;37.592;2022-12-18T11:20:00;16.05;;;4.95;;
35442;SDS011;21561;55.654;37.592;2022-12-18T11:22:30;12.45;;;3.35;;
35442;SDS011;21561;55.654;37.592;2022-12-18T11:30:26;15.95;;;5.10;;
35442;SDS011;21561;55.654;37.592;2022-12-18T11:33:13;13.23;;;3.85;;
35442;SDS011;21561;55.654;37.592;2022-12-18T11:40:55;15.10;;;4.00;;
35442;SDS011;21561;55.654;37.592;2022-12-18T11:43:58;14.20;;;4.32;;
35442;SDS011;21561;55.654;37.592;2022-12-18T11:46:36;14.48;;;4.60;;
35442;SDS011;21561;55.654;37.592;2022-12-18T11:49:11;13.45;;;4.00;;
35442;SDS011;21561;55.654;37.592;2022-12-18T11:51:48;14.60;;;4.45;;
35442;SDS011;21561;55.654;37.592;2022-12-18T11:54:25;16.08;;;4.35;;
35442;SDS011;21561;55.654;37.592;2022-12-18T11:59:29;15.15;;;3.90;;
35442;SDS011;21561;55.654;37.592;2022-12-18T12:04:48;15.00;;;4.38;;
35442;SDS011;21561;55.654;37.592;2022-12-18T12:07:38;12.23;;;3.83;;
35442;SDS011;21561;55.654;37.592;2022-12-18T12:18:51;10.05;;;2.88;;
35442;SDS011;21561;55.654;37.592;2022-12-18T12:22:03;11.65;;;3.95;;
35442;SDS011;21561;55.654;37.592;2022-12-18T12:30:30;11.98;;;3.35;;
35442;SDS011;21561;55.654;37.592;2022-12-18T12:38:14;13.13;;;3.97;;
35442;SDS011;21561;55.654;37.592;2022-12-18T12:40:49;9.25;;;2.72;;
35442;SDS011;21561;55.654;37.592;2022-12-18T12:43:46;12.48;;;3.25;;
35442;SDS011;21561;55.654;37.592;2022-12-18T12:46:17;14.38;;;4.55;;
35442;SDS011;21561;55.654;37.592;2022-12-18T12:48:55;12.25;;;3.80;;
35442;SDS011;21561;55.654;37.592;2022-12-18T12:51:25;9.95;;;2.70;;
35442;SDS011;21561;55.654;37.592;2022-12-18T12:53:58;12.02;;;3.05;;
35442;SDS011;21561;55.654;37.592;2022-12-18T12:56:32;9.95;;;2.85;;
35442;SDS011;21561;55.654;37.592;2022-12-18T12:59:27;13.18;;;3.45;;
35442;SDS011;21561;55.654;37.592;2022-12-18T13:02:05;10.55;;;3.25;;
35442;SDS011;21561;55.654;37.592;2022-12-18T13:05:09;10.02;;;3.13;;
35442;SDS011;21561;55.654;37.592;2022-12-18T13:10:34;9.65;;;3.08;;
35442;SDS011;21561;55.654;37.592;2022-12-18T13:13:12;16.67;;;3.83;;
35442;SDS011;21561;55.654;37.592;2022-12-18T13:15:50;10.55;;;3.42;;
35442;SDS011;21561;55.654;37.592;2022-12-18T13:18:31;10.88;;;3.10;;
35442;SDS011;21561;55.654;37.592;2022-12-18T13:23:33;13.57;;;3.60;;
35442;SDS011;21561;55.654;37.592;2022-12-18T13:33:44;13.77;;;4.35;;
35442;SDS011;21561;55.654;37.592;2022-12-18T13:36:32;14.68;;;4.10;;
35442;SDS011;21561;55.654;37.592;2022-12-18T13:41:50;18.17;;;5.47;;
35442;SDS011;21561;55.654;37.592;2022-12-18T13:44:32;14.13;;;4.22;;
35442;SDS011;21561;55.654;37.592;2022-12-18T13:47:24;18.73;;;5.25;;
35442;SDS011;21561;55.654;37.592;2022-12-18T13:50:00;19.45;;;6.40;;
35442;SDS011;21561;55.654;37.592;2022-12-18T13:52:37;17.98;;;5.25;;
35442;SDS011;21561;55.654;37.592;2022-12-18T13:55:07;14.73;;;4.15;;
35442;SDS011;21561;55.654;37.592;2022-12-18T13:57:42;20.35;;;5.13;;
35442;SDS011;21561;55.654;37.592;2022-12-18T14:02:49;18.30;;;6.18;;
35442;SDS011;21561;55.654;37.592;2022-12-18T14:05:33;16.75;;;5.18;;
35442;SDS011;21561;55.654;37.592;2022-12-18T14:08:10;14.75;;;5.13;;
35442;SDS011;21561;55.654;37.592;2022-12-18T14:10:40;19.83;;;5.68;;
35442;SDS011;21561;55.654;37.592;2022-12-18T14:15:53;19.77;;;5.75;;
35442;SDS011;21561;55.654;37.592;2022-12-18T14:21:25;19.35;;;6.30;;
35442;SDS011;21561;55.654;37.592;2022-12-18T14:24:12;22.25;;;7.60;;
35442;SDS011;21561;55.654;37.592;2022-12-18T14:26:47;19.63;;;6.00;;
35442;SDS011;21561;55.654;37.592;2022-12-18T14:31:50;22.98;;;6.90;;
35442;SDS011;21561;55.654;37.592;2022-12-18T14:34:47;20.23;;;5.97;;
35442;SDS011;21561;55.654;37.592;2022-12-18T14:37:20;19.83;;;5.82;;
35442;SDS011;21561;55.654;37.592;2022-12-18T14:39:52;20.85;;;6.60;;
35442;SDS011;21561;55.654;37.592;2022-12-18T14:42:23;20.42;;;7.03;;
35442;SDS011;21561;55.654;37.592;2022-12-18T14:48:20;16.02;;;5.18;;
35442;SDS011;21561;55.654;37.592;2022-12-18T14:51:15;13.90;;;4.20;;
35442;SDS011;21561;55.654;37.592;2022-12-18T14:53:46;14.90;;;4.00;;
35442;SDS011;21561;55.654;37.592;2022-12-18T14:58:48;11.15;;;3.55;;
35442;SDS011;21561;55.654;37.592;2022-12-18T15:01:25;18.00;;;5.68;;
35442;SDS011;21561;55.654;37.592;2022-12-18T15:03:55;15.77;;;4.82;;
35442;SDS011;21561;55.654;37.592;2022-12-18T15:08:55;16.42;;;4.15;;
35442;SDS011;21561;55.654;37.592;2022-12-18T15:11:24;14.48;;;4.40;;
35442;SDS011;21561;55.654;37.592;2022-12-18T15:13:58;15.85;;;4.57;;
35442;SDS011;21561;55.654;37.592;2022-12-18T15:16:26;17.42;;;4.95;;
35442;SDS011;21561;55.654;37.592;2022-12-18T15:18:53;12.15;;;3.53;;
35442;SDS011;21561;55.654;37.592;2022-12-18T15:21:20;13.73;;;4.03;;
35442;SDS011;21561;55.654;37.592;2022-12-18T15:23:48;16.08;;;4.00;;
35442;SDS011;21561;55.654;37.592;2022-12-18T15:26:18;14.27;;;3.72;;
35442;SDS011;21561;55.654;37.592;2022-12-18T15:28:51;11.60;;;3.10;;
35442;SDS011;21561;55.654;37.592;2022-12-18T15:36:36;11.23;;;3.15;;
35442;SDS011;21561;55.654;37.592;2022-12-18T15:39:03;13.55;;;3.90;;
35442;SDS011;21561;55.654;37.592;2022-12-18T15:41:32;12.93;;;3.75;;
35442;SDS011;21561;55.654;37.592;2022-12-18T15:44:01;12.75;;;3.75;;
35442;SDS011;21561;55.654;37.592;2022-12-18T15:46:30;12.93;;;3.58;;
35442;SDS011;21561;55.654;37.592;2022-12-18T15:48:58;12.05;;;3.38;;
35442;SDS011;21561;55.654;37.592;2022-12-18T15:51:32;14.07;;;4.68;;
35442;SDS011;21561;55.654;37.592;2022-12-18T15:54:02;11.77;;;3.50;;
35442;SDS011;21561;55.654;37.592;2022-12-18T15:56:31;15.27;;;4.45;;
35442;SDS011;21561;55.654;37.592;2022-12-18T15:59:20;10.10;;;3.42;;
35442;SDS011;21561;55.654;37.592;2022-12-18T16:01:49;11.23;;;3.63;;
35442;SDS011;21561;55.654;37.592;2022-12-18T16:04:20;14.27;;;4.95;;
35442;SDS011;21561;55.654;37.592;2022-12-18T16:06:49;12.50;;;4.15;;
35442;SDS011;21561;55.654;37.592;2022-12-18T16:09:38;13.38;;;3.40;;
35442;SDS011;21561;55.654;37.592;2022-12-18T16:12:06;13.30;;;4.13;;
35442;SDS011;21561;55.654;37.592;2022-12-18T16:14:40;13.27;;;4.75;;
35442;SDS011;21561;55.654;37.592;2022-12-18T16:17:11;12.65;;;3.40;;
35442;SDS011;21561;55.654;37.592;2022-12-18T16:19:39;12.48;;;3.72;;
35442;SDS011;21561;55.654;37.592;2022-12-18T16:22:08;14.88;;;4.72;;
35442;SDS011;21561;55.654;37.592;2022-12-18T16:24:48;12.77;;;4.13;;
35442;SDS011;21561;55.654;37.592;2022-12-18T16:27:16;14.63;;;4.72;;
35442;SDS011;21561;55.654;37.592;2022-12-18T16:29:43;13.80;;;4.60;;
35442;SDS011;21561;55.654;37.592;2022-12-18T16:32:14;16.13;;;4.60;;
35442;SDS011;21561;55.654;37.592;2022-12-18T16:34:43;13.32;;;4.28;;
35442;SDS011;21561;55.654;37.592;2022-12-18T16:37:11;13.93;;;4.85;;
35442;SDS011;21561;55.654;37.592;2022-12-18T16:39:41;16.02;;;4.60;;
35442;SDS011;21561;55.654;37.592;2022-12-18T16:42:10;16.33;;;5.40;;
35442;SDS011;21561;55.654;37.592;2022-12-18T16:44:38;16.10;;;4.90;;
35442;SDS011;21561;55.654;37.592;2022-12-18T16:47:05;14.32;;;4.95;;
35442;SDS011;21561;55.654;37.592;2022-12-18T16:49:36;14.90;;;4.28;;
35442;SDS011;21561;55.654;37.592;2022-12-18T16:52:04;12.20;;;4.03;;
35442;SDS011;21561;55.654;37.592;2022-12-18T16:54:32;17.73;;;5.05;;
35442;SDS011;21561;55.654;37.592;2022-12-18T16:57:00;13.70;;;3.67;;